KOMN

Ormond Beach Municipal Airport

Ormond Beach, Florida, USA
METAR KOMN 202250Z 12005KT 10SM SCT035 29/23 A3006 RMK LAST
Observed Flight Rules
Aug-20 @ 22:50 UTC (15 hours ago) Visual Flight Rules
Wind Visibility Clouds
120° at 5 knots 10 miles
  • Scattered at 3,500' AGL
Temperatures Readings
Current 29°C / 84°F
Dewpoint 23°C / 73°F
Humidity 70%
Altimeter 30.06" Hg
Pressure 1018 hPa
Elevation 9
METAR KOMN 202250Z 12005KT 10SM SCT035 29/23 A3006 RMK LAST
Observed Flight Rules
Aug-20 @ 22:50 UTC
(15 hours ago)
VFR
Wind Visibility
120° at 5 knots 10 miles
Clouds
  • Scattered at 3,500' AGL
Temperature Dewpoint
29°C / 84°F 23°C / 73°F
Humidity Altimeter Pressure
70% 30.06" Hg 1018 hPa